Time;durP1;ratioP1;P1;durP2;ratioP2;P2;SDS_P1;SDS_P2;PMS_P1;PMS_P2;Temp;Humidity;BMP_temperature;BMP_pressure;BME280_temperature;BME280_humidity;BME280_pressure;Samples;Min_cycle;Max_cycle;Signal;HPM_P1;HPM_P2
2022/10/23 00:02:24;;;;;;;11.13;6.22;;;15.30;88.80;;;;;;5003462;28;20038;-81
2022/10/23 00:04:51;;;;;;;14.35;6.80;;;15.40;88.70;;;;;;4990127;28;20030;-83
2022/10/23 00:07:17;;;;;;;12.43;6.18;;;15.50;88.70;;;;;;5012137;28;20081;-78
2022/10/23 00:09:43;;;;;;;12.70;6.07;;;15.50;88.50;;;;;;5015446;28;20090;-81
2022/10/23 00:12:09;;;;;;;12.60;5.60;;;15.50;88.50;;;;;;4999161;28;20738;-81
2022/10/23 00:14:34;;;;;;;16.73;6.07;;;15.50;88.60;;;;;;4992879;28;20019;-81
2022/10/23 00:17:00;;;;;;;13.07;6.32;;;15.60;88.70;;;;;;4994189;28;20316;-84
2022/10/23 00:19:26;;;;;;;13.68;5.70;;;15.60;88.70;;;;;;4974502;28;20455;-78
2022/10/23 00:21:52;;;;;;;10.57;6.03;;;15.60;88.60;;;;;;4983136;28;20057;-84
2022/10/23 00:24:17;;;;;;;12.27;5.70;;;15.70;88.50;;;;;;4979757;28;20480;-83
2022/10/23 00:26:43;;;;;;;11.07;5.80;;;15.70;88.40;;;;;;4999785;28;20516;-84
2022/10/23 00:29:10;;;;;;;11.68;5.70;;;15.70;88.30;;;;;;4996978;28;20150;-85
2022/10/23 00:31:36;;;;;;;11.32;5.18;;;15.70;88.20;;;;;;4999648;28;20104;-79
2022/10/23 00:34:03;;;;;;;10.20;5.85;;;15.70;88.10;;;;;;5003028;28;20096;-84
2022/10/23 00:36:29;;;;;;;13.95;6.60;;;15.60;88.00;;;;;;4988340;28;20033;-86
2022/10/23 00:38:55;;;;;;;13.27;6.45;;;15.60;88.10;;;;;;5002878;28;20040;-82
2022/10/23 00:41:24;;;;;;;10.80;6.03;;;15.60;88.10;;;;;;5004971;28;20041;-85
2022/10/23 00:44:06;;;;;;;11.98;6.03;;;15.60;88.00;;;;;;4987798;28;20033;-86
2022/10/23 00:46:32;;;;;;;15.32;7.07;;;15.60;88.10;;;;;;5003077;28;20037;-85
2022/10/23 00:48:59;;;;;;;10.30;6.28;;;15.60;88.10;;;;;;4983785;28;20042;-82
2022/10/23 00:51:28;;;;;;;9.20;5.55;;;15.60;88.00;;;;;;5002123;28;20068;-77
2022/10/23 00:53:57;;;;;;;12.70;6.05;;;15.60;88.00;;;;;;5023188;28;20022;-81
2022/10/23 00:56:24;;;;;;;13.80;6.80;;;15.50;88.00;;;;;;5024321;28;20133;-78
2022/10/23 00:58:50;;;;;;;12.88;6.90;;;15.50;88.00;;;;;;5024213;28;20025;-81
2022/10/23 01:01:21;;;;;;;12.43;6.90;;;15.50;88.10;;;;;;5020970;28;20102;-79
2022/10/23 01:03:48;;;;;;;9.38;6.10;;;15.50;88.10;;;;;;5021669;28;20030;-78
2022/10/23 01:06:51;;;;;;;14.30;7.40;;;15.50;88.10;;;;;;5021774;28;20034;-78
2022/10/23 01:09:47;;;;;;;13.20;7.28;;;15.50;88.20;;;;;;5024464;28;20049;-79
2022/10/23 01:12:18;;;;;;;10.85;6.50;;;15.50;88.20;;;;;;5023820;28;20045;-78
2022/10/23 01:15:30;;;;;;;11.18;6.80;;;15.50;88.30;;;;;;5023104;28;20042;-78
2022/10/23 01:18:07;;;;;;;10.73;6.47;;;15.50;88.30;;;;;;5022015;28;20025;-79
2022/10/23 01:20:53;;;;;;;9.13;5.82;;;15.50;88.30;;;;;;5006703;28;20022;-78
2022/10/23 01:23:34;;;;;;;14.23;6.55;;;15.50;88.30;;;;;;5015034;28;20777;-81
2022/10/23 01:26:30;;;;;;;9.70;6.30;;;15.50;88.30;;;;;;5004210;28;20022;-77
2022/10/23 01:29:02;;;;;;;10.75;6.53;;;15.50;88.30;;;;;;5005516;28;20045;-82
2022/10/23 01:31:48;;;;;;;10.52;5.82;;;15.50;88.40;;;;;;4994759;28;20046;-83
2022/10/23 01:34:40;;;;;;;11.18;5.80;;;15.50;88.40;;;;;;5000396;28;20038;-85
2022/10/23 01:37:11;;;;;;;9.48;5.50;;;15.50;88.40;;;;;;5003715;28;20117;-81
2022/10/23 01:39:41;;;;;;;8.32;5.40;;;15.50;88.50;;;;;;4996153;28;20493;-81
2022/10/23 01:42:16;;;;;;;11.20;5.55;;;15.40;88.40;;;;;;4997755;28;20026;-80
2022/10/23 01:44:48;;;;;;;12.77;5.82;;;15.50;88.50;;;;;;4980791;28;20030;-85
2022/10/23 01:47:18;;;;;;;12.55;5.70;;;15.50;88.50;;;;;;4979404;28;20410;-86
2022/10/23 01:49:46;;;;;;;10.98;5.22;;;15.60;88.40;;;;;;4979672;28;20053;-85
2022/10/23 01:52:14;;;;;;;11.25;5.05;;;15.50;88.40;;;;;;4997176;28;20141;-81
2022/10/23 01:54:43;;;;;;;9.90;5.18;;;15.50;88.30;;;;;;4996394;28;20592;-82
2022/10/23 01:57:11;;;;;;;9.45;4.90;;;15.50;88.30;;;;;;4997654;28;20033;-84
2022/10/23 01:59:43;;;;;;;9.23;5.03;;;15.60;88.20;;;;;;4998949;28;20226;-79
2022/10/23 02:02:11;;;;;;;9.45;5.03;;;15.50;88.10;;;;;;4995713;28;20494;-82
2022/10/23 02:04:40;;;;;;;9.32;4.63;;;15.50;88.10;;;;;;4997043;28;21305;-82
2022/10/23 02:07:05;;;;;;;9.30;5.03;;;15.50;88.10;;;;;;4996657;28;20076;-86
2022/10/23 02:09:32;;;;;;;10.65;4.80;;;15.40;88.10;;;;;;4996720;28;20034;-85
2022/10/23 02:12:32;;;;;;;9.60;4.90;;;15.40;88.20;;;;;;4997665;28;20038;-87
2022/10/23 02:15:06;;;;;;;11.90;4.88;;;15.40;88.30;;;;;;4992958;28;20136;-82
2022/10/23 02:17:48;;;;;;;9.55;4.72;;;15.50;88.40;;;;;;4998710;28;20042;-82
2022/10/23 02:20:28;;;;;;;11.43;5.15;;;15.40;88.30;;;;;;4997095;28;20027;-81
2022/10/23 02:23:19;;;;;;;11.13;4.88;;;15.40;88.30;;;;;;4997143;28;20117;-86
2022/10/23 02:26:07;;;;;;;9.77;4.95;;;15.40;88.20;;;;;;4982317;28;20022;-85
2022/10/23 02:28:43;;;;;;;9.60;4.50;;;15.40;88.30;;;;;;4990271;28;20033;-85
2022/10/23 02:31:13;;;;;;;9.98;4.85;;;15.40;88.20;;;;;;5000335;28;20674;-85
2022/10/23 02:33:39;;;;;;;8.23;4.28;;;15.40;88.20;;;;;;4997341;28;20076;-87
2022/10/23 02:36:05;;;;;;;10.82;5.13;;;15.40;88.20;;;;;;4994804;28;20090;-83
2022/10/23 02:38:33;;;;;;;8.82;4.80;;;15.40;88.30;;;;;;4998889;28;20029;-85
2022/10/23 02:41:13;;;;;;;8.20;4.43;;;15.40;88.30;;;;;;5020650;28;20028;-78
2022/10/23 02:43:50;;;;;;;8.80;4.95;;;15.40;88.20;;;;;;5007183;28;20029;-85
2022/10/23 02:46:28;;;;;;;11.63;5.38;;;15.40;88.20;;;;;;4996838;28;20045;-86
2022/10/23 02:49:13;;;;;;;9.95;5.10;;;15.30;88.20;;;;;;4976997;28;20120;-84
2022/10/23 02:51:53;;;;;;;10.30;4.72;;;15.40;88.30;;;;;;4996015;28;20355;-81
2022/10/23 02:54:26;;;;;;;9.93;4.78;;;15.30;88.40;;;;;;5000718;28;20037;-83
2022/10/23 02:57:01;;;;;;;7.93;4.80;;;15.30;88.50;;;;;;4980549;28;20694;-81
2022/10/23 02:59:44;;;;;;;10.68;5.35;;;15.30;88.50;;;;;;4978922;28;20589;-86
2022/10/23 03:02:24;;;;;;;9.73;5.75;;;15.30;88.50;;;;;;5008420;28;20034;-85
2022/10/23 03:04:53;;;;;;;9.43;5.07;;;15.30;88.50;;;;;;5004464;28;20056;-85
2022/10/23 03:07:19;;;;;;;9.90;5.07;;;15.30;88.50;;;;;;5005844;28;20041;-84
2022/10/23 03:09:45;;;;;;;9.63;4.85;;;15.30;88.50;;;;;;5006175;28;20084;-80
2022/10/23 03:12:11;;;;;;;8.82;4.97;;;15.20;88.60;;;;;;5007777;28;20038;-82
2022/10/23 03:14:36;;;;;;;10.60;4.95;;;15.20;88.70;;;;;;4991090;28;20022;-82
2022/10/23 03:17:03;;;;;;;10.82;5.55;;;15.20;88.70;;;;;;4991356;28;20049;-79
2022/10/23 03:19:28;;;;;;;9.35;5.20;;;15.20;88.70;;;;;;4985706;28;20099;-82
2022/10/23 03:21:54;;;;;;;12.95;4.78;;;15.20;88.70;;;;;;4994801;28;20429;-83
2022/10/23 03:24:20;;;;;;;9.70;4.80;;;15.20;88.70;;;;;;4979688;28;20029;-85
2022/10/23 03:26:45;;;;;;;10.25;5.05;;;15.20;88.60;;;;;;4997471;28;20053;-84
2022/10/23 03:29:11;;;;;;;8.65;5.03;;;15.20;88.60;;;;;;4995818;28;20061;-84
2022/10/23 03:31:36;;;;;;;7.50;4.53;;;15.20;88.70;;;;;;4994321;28;20508;-84
2022/10/23 03:34:02;;;;;;;9.88;4.43;;;15.10;88.70;;;;;;4993048;28;20370;-84
2022/10/23 03:36:27;;;;;;;8.57;5.18;;;15.20;88.80;;;;;;4982214;28;20423;-86
2022/10/23 03:38:53;;;;;;;8.10;4.70;;;15.20;88.70;;;;;;4999495;28;20125;-82
2022/10/23 03:41:19;;;;;;;8.32;4.50;;;15.10;88.70;;;;;;5003083;28;20053;-82
2022/10/23 03:43:44;;;;;;;9.15;4.85;;;15.10;88.80;;;;;;4994011;28;20129;-85
2022/10/23 03:46:11;;;;;;;13.52;4.63;;;15.10;88.90;;;;;;4995433;28;20050;-84
2022/10/23 03:48:38;;;;;;;6.57;4.05;;;15.10;89.00;;;;;;4994936;28;20219;-86
2022/10/23 03:51:06;;;;;;;8.65;4.57;;;15.10;88.90;;;;;;4979308;28;20042;-82
2022/10/23 03:53:32;;;;;;;10.27;4.70;;;15.10;88.80;;;;;;4994119;28;20042;-82
2022/10/23 03:55:58;;;;;;;7.78;3.65;;;15.10;88.80;;;;;;5003924;28;20042;-77
2022/10/23 03:58:23;;;;;;;8.48;4.40;;;15.10;88.90;;;;;;5023676;28;20022;-76
2022/10/23 04:00:49;;;;;;;7.72;3.97;;;15.10;88.90;;;;;;5007204;28;20243;-80
2022/10/23 04:03:15;;;;;;;8.48;4.60;;;15.10;89.00;;;;;;5001152;28;20048;-86
2022/10/23 04:05:41;;;;;;;7.00;3.90;;;15.10;88.90;;;;;;4982689;28;20416;-86
2022/10/23 04:08:07;;;;;;;8.90;3.90;;;15.10;88.90;;;;;;5010498;28;20014;-81
2022/10/23 04:10:32;;;;;;;8.30;4.05;;;15.00;89.00;;;;;;5021587;28;20053;-78
2022/10/23 04:12:58;;;;;;;7.43;4.32;;;15.00;89.00;;;;;;5024051;28;20049;-78
2022/10/23 04:15:24;;;;;;;7.43;3.78;;;15.10;89.00;;;;;;5005748;28;20428;-84
2022/10/23 04:17:49;;;;;;;9.07;4.25;;;15.00;89.00;;;;;;4999577;28;20216;-82
2022/10/23 04:20:15;;;;;;;8.40;4.13;;;15.00;89.10;;;;;;4997943;28;20029;-83
2022/10/23 04:22:40;;;;;;;7.80;4.30;;;15.00;89.10;;;;;;4998088;28;20093;-86
2022/10/23 04:25:06;;;;;;;9.50;4.82;;;15.00;89.10;;;;;;4996717;28;20402;-81
2022/10/23 04:27:33;;;;;;;7.18;3.58;;;15.00;89.10;;;;;;4997156;28;20034;-87
2022/10/23 04:29:59;;;;;;;6.43;3.83;;;15.00;89.20;;;;;;4996892;28;20034;-82
2022/10/23 04:32:25;;;;;;;7.95;4.03;;;15.00;89.20;;;;;;4998746;28;20045;-86
2022/10/23 04:34:50;;;;;;;9.27;4.60;;;15.00;89.30;;;;;;4981690;28;20491;-87
2022/10/23 04:37:16;;;;;;;9.65;5.05;;;15.00;89.30;;;;;;4997353;28;20100;-84
2022/10/23 04:39:41;;;;;;;9.40;5.40;;;15.00;89.30;;;;;;4980638;28;20113;-85
2022/10/23 04:42:07;;;;;;;9.48;5.43;;;15.00;89.20;;;;;;4998074;28;20038;-83
2022/10/23 04:44:33;;;;;;;9.23;5.35;;;15.00;89.20;;;;;;4998070;28;20042;-83
2022/10/23 04:46:58;;;;;;;10.20;4.53;;;15.00;89.20;;;;;;4996081;28;20413;-84
2022/10/23 04:49:24;;;;;;;8.40;5.13;;;15.00;89.20;;;;;;4996572;28;20660;-81
2022/10/23 04:51:50;;;;;;;9.63;4.68;;;14.90;89.30;;;;;;4997673;28;20042;-84
2022/10/23 04:54:15;;;;;;;7.15;4.05;;;14.90;89.30;;;;;;4997512;28;20033;-83
2022/10/23 04:56:41;;;;;;;9.35;4.72;;;15.00;89.40;;;;;;4995535;28;20080;-82
2022/10/23 04:59:07;;;;;;;8.70;4.72;;;14.90;89.30;;;;;;4997154;28;20049;-87
2022/10/23 05:01:32;;;;;;;9.00;4.32;;;14.90;89.30;;;;;;4996459;28;20071;-83
2022/10/23 05:03:58;;;;;;;7.65;3.97;;;14.90;89.40;;;;;;4982460;28;20084;-84
2022/10/23 05:06:24;;;;;;;7.00;3.97;;;14.90;89.30;;;;;;4996854;28;20109;-87
2022/10/23 05:08:49;;;;;;;9.85;4.82;;;14.90;89.40;;;;;;4998182;28;20033;-83
2022/10/23 05:11:15;;;;;;;7.97;4.97;;;14.90;89.40;;;;;;4997292;28;20509;-84
2022/10/23 05:13:41;;;;;;;8.75;4.95;;;14.90;89.40;;;;;;5012067;28;20113;-80
2022/10/23 05:16:06;;;;;;;11.65;5.38;;;15.00;89.60;;;;;;5016795;28;20236;-80
2022/10/23 05:18:37;;;;;;;8.93;5.28;;;15.00;89.60;;;;;;5000571;28;20040;-85
2022/10/23 05:21:13;;;;;;;12.50;5.15;;;15.00;89.60;;;;;;4996182;28;20072;-78
2022/10/23 05:23:41;;;;;;;9.02;4.85;;;15.00;89.60;;;;;;4995727;28;20041;-83
2022/10/23 05:26:06;;;;;;;9.27;4.68;;;15.00;89.50;;;;;;4997776;28;20029;-83
2022/10/23 05:28:32;;;;;;;8.55;5.38;;;15.00;89.60;;;;;;4994661;28;21379;-85
2022/10/23 05:30:59;;;;;;;13.75;6.93;;;15.00;89.60;;;;;;4995968;28;20393;-82
2022/10/23 05:33:26;;;;;;;13.98;7.50;;;15.10;89.70;;;;;;4995657;28;20469;-83
2022/10/23 05:35:51;;;;;;;11.32;6.88;;;15.10;89.70;;;;;;4996426;28;20096;-88
2022/10/23 05:38:17;;;;;;;10.68;6.90;;;15.10;89.80;;;;;;4997027;28;20026;-85
2022/10/23 05:40:43;;;;;;;13.05;7.13;;;15.20;89.80;;;;;;4995953;28;20525;-84
2022/10/23 05:43:09;;;;;;;15.15;8.10;;;15.20;89.70;;;;;;4994347;28;20429;-84
2022/10/23 05:45:34;;;;;;;12.77;6.95;;;15.30;89.70;;;;;;4995732;28;20533;-86
2022/10/23 05:48:00;;;;;;;12.23;6.90;;;15.30;89.60;;;;;;4994690;28;20030;-86
2022/10/23 05:50:26;;;;;;;10.73;5.95;;;15.30;89.50;;;;;;4995586;28;20181;-83
2022/10/23 05:52:51;;;;;;;9.35;5.60;;;15.30;89.50;;;;;;4979884;28;20573;-85
2022/10/23 05:55:17;;;;;;;12.05;5.30;;;15.40;89.40;;;;;;4979840;28;20057;-85
2022/10/23 05:57:43;;;;;;;9.18;5.20;;;15.40;89.30;;;;;;4997422;28;20028;-83
2022/10/23 06:00:09;;;;;;;9.57;5.32;;;15.40;89.20;;;;;;4995287;28;20407;-82
2022/10/23 06:02:34;;;;;;;7.93;4.90;;;15.40;89.10;;;;;;4981032;28;20452;-84
2022/10/23 06:05:00;;;;;;;8.85;5.65;;;15.40;89.20;;;;;;4994717;28;20571;-87
2022/10/23 06:07:27;;;;;;;9.73;4.80;;;15.40;89.00;;;;;;4978085;28;20041;-82
2022/10/23 06:09:53;;;;;;;8.43;4.78;;;15.40;89.10;;;;;;4996416;28;20458;-80
2022/10/23 06:12:22;;;;;;;9.82;4.57;;;15.40;89.00;;;;;;4977325;28;20050;-85
2022/10/23 06:14:48;;;;;;;10.70;5.63;;;15.40;89.00;;;;;;4979437;28;20030;-85
2022/10/23 06:17:14;;;;;;;9.57;4.70;;;15.30;89.10;;;;;;4978053;28;20400;-80
2022/10/23 06:19:39;;;;;;;8.93;4.47;;;15.40;89.20;;;;;;4993419;28;20052;-85
2022/10/23 06:22:05;;;;;;;10.45;4.35;;;15.40;89.10;;;;;;4977212;28;20038;-80
2022/10/23 06:24:31;;;;;;;6.80;3.53;;;15.50;89.00;;;;;;4994063;28;20095;-86
2022/10/23 06:26:56;;;;;;;10.20;3.78;;;15.50;88.90;;;;;;4995693;28;20034;-86
2022/10/23 06:29:22;;;;;;;8.48;4.10;;;15.60;88.70;;;;;;4997111;28;20037;-79
2022/10/23 06:31:48;;;;;;;8.95;4.00;;;15.60;88.40;;;;;;5004053;28;20107;-80
2022/10/23 06:34:14;;;;;;;8.38;4.25;;;15.60;88.30;;;;;;4989366;28;20033;-80
2022/10/23 06:36:40;;;;;;;9.98;4.22;;;15.70;88.10;;;;;;5003693;28;20045;-82
2022/10/23 06:39:05;;;;;;;7.80;3.97;;;15.70;87.90;;;;;;5007359;28;20386;-80
2022/10/23 06:41:31;;;;;;;9.95;3.72;;;15.70;87.70;;;;;;4998519;28;20026;-82
2022/10/23 06:43:57;;;;;;;8.85;4.13;;;15.80;87.60;;;;;;4994238;28;20080;-87
2022/10/23 06:46:22;;;;;;;11.70;3.88;;;15.80;87.40;;;;;;4977859;28;20030;-81
2022/10/23 06:48:48;;;;;;;8.68;4.10;;;15.90;87.40;;;;;;4995187;28;20525;-86
2022/10/23 06:51:16;;;;;;;7.00;4.13;;;15.80;87.30;;;;;;4994042;28;20202;-83
2022/10/23 06:53:42;;;;;;;12.32;3.88;;;15.90;87.20;;;;;;4994243;28;20034;-82
2022/10/23 06:56:09;;;;;;;8.68;3.85;;;16.00;87.20;;;;;;4977576;28;20382;-83
2022/10/23 06:58:36;;;;;;;7.70;3.38;;;16.00;87.10;;;;;;4994683;28;20026;-87
2022/10/23 07:01:04;;;;;;;8.10;3.85;;;16.00;87.00;;;;;;4994812;28;20149;-87
2022/10/23 07:03:30;;;;;;;10.68;3.75;;;16.00;86.90;;;;;;4996048;28;20026;-88
2022/10/23 07:06:03;;;;;;;8.77;3.78;;;16.10;86.80;;;;;;4993997;28;20022;-83
2022/10/23 07:08:28;;;;;;;8.40;3.75;;;16.10;86.70;;;;;;4993925;28;20038;-83
2022/10/23 07:10:55;;;;;;;7.95;3.72;;;16.10;86.70;;;;;;4995880;28;20041;-85
2022/10/23 07:13:22;;;;;;;13.05;4.32;;;16.10;86.60;;;;;;4994350;28;20046;-85
2022/10/23 07:15:48;;;;;;;9.57;4.00;;;16.10;86.90;;;;;;4992626;28;20029;-83
2022/10/23 07:18:15;;;;;;;10.48;3.97;;;16.30;86.80;;;;;;4995342;28;20096;-82
2022/10/23 07:20:41;;;;;;;9.90;4.15;;;16.30;86.60;;;;;;4976076;28;20057;-82
2022/10/23 07:23:09;;;;;;;8.07;4.05;;;16.50;86.40;;;;;;4992827;28;20033;-79
2022/10/23 07:25:36;;;;;;;8.82;4.25;;;16.50;86.30;;;;;;4993516;28;20164;-82
2022/10/23 07:28:03;;;;;;;10.98;4.05;;;16.50;86.40;;;;;;4993173;28;20517;-79
2022/10/23 07:30:28;;;;;;;11.88;4.05;;;16.60;86.50;;;;;;4993920;28;20766;-84
2022/10/23 07:32:54;;;;;;;9.43;3.47;;;16.60;86.60;;;;;;4995001;28;20036;-84
2022/10/23 07:35:19;;;;;;;9.15;3.60;;;16.50;86.80;;;;;;4993633;28;20274;-82
2022/10/23 07:37:45;;;;;;;8.40;4.07;;;16.50;86.90;;;;;;4993847;28;20030;-85
2022/10/23 07:40:11;;;;;;;12.13;4.90;;;16.50;86.90;;;;;;4992601;28;20038;-80
2022/10/23 07:42:37;;;;;;;13.88;4.07;;;16.50;87.20;;;;;;4994518;28;20049;-85
2022/10/23 07:45:05;;;;;;;9.05;4.18;;;16.40;87.30;;;;;;4992895;28;20425;-83
2022/10/23 07:47:31;;;;;;;11.93;4.25;;;16.40;87.40;;;;;;5013213;28;20060;-78
2022/10/23 07:49:57;;;;;;;8.95;4.32;;;16.40;87.40;;;;;;5008466;28;20429;-84
2022/10/23 07:52:23;;;;;;;11.25;4.50;;;16.40;87.40;;;;;;4993610;28;20131;-80
2022/10/23 07:54:51;;;;;;;9.20;4.22;;;16.40;87.50;;;;;;4994842;28;20037;-83
2022/10/23 07:57:18;;;;;;;11.38;4.60;;;16.40;87.50;;;;;;4974956;28;20476;-81
2022/10/23 07:59:43;;;;;;;11.32;4.30;;;16.30;87.50;;;;;;4990243;28;20234;-83
2022/10/23 08:02:11;;;;;;;8.32;4.13;;;16.40;87.60;;;;;;4989961;28;20053;-80
2022/10/23 08:04:37;;;;;;;9.75;4.20;;;16.30;87.60;;;;;;4973586;28;20527;-83
2022/10/23 08:07:02;;;;;;;8.48;4.00;;;16.30;87.70;;;;;;4988081;28;20038;-81
2022/10/23 08:09:28;;;;;;;10.68;5.10;;;16.30;87.80;;;;;;4988760;28;20038;-84
2022/10/23 08:11:53;;;;;;;8.98;4.68;;;16.30;87.80;;;;;;4988442;28;20493;-83
2022/10/23 08:14:19;;;;;;;10.30;4.47;;;16.30;87.90;;;;;;4991556;28;20061;-80
2022/10/23 08:16:45;;;;;;;10.23;4.60;;;16.30;87.80;;;;;;5010183;28;20038;-78
2022/10/23 08:19:11;;;;;;;8.27;4.60;;;16.30;88.00;;;;;;5007225;28;20034;-84
2022/10/23 08:21:36;;;;;;;10.52;4.47;;;16.30;88.10;;;;;;4976813;28;20045;-82
2022/10/23 08:24:03;;;;;;;10.20;4.53;;;16.30;88.10;;;;;;4994344;28;20030;-83
2022/10/23 08:26:29;;;;;;;7.45;4.13;;;16.30;88.10;;;;;;4978456;28;20027;-81
2022/10/23 08:28:55;;;;;;;10.55;3.92;;;16.40;88.10;;;;;;4990175;28;20030;-84
2022/10/23 08:31:21;;;;;;;13.35;4.78;;;16.30;87.90;;;;;;4978936;28;20093;-79
2022/10/23 08:33:47;;;;;;;9.70;4.30;;;16.40;87.90;;;;;;4994031;28;20030;-81
2022/10/23 08:36:21;;;;;;;9.55;4.18;;;16.40;87.70;;;;;;4994981;28;20038;-84
2022/10/23 08:38:47;;;;;;;8.43;4.47;;;16.40;87.40;;;;;;4994562;28;20045;-83
2022/10/23 08:41:21;;;;;;;8.75;4.63;;;16.40;87.30;;;;;;4994974;28;20393;-83
2022/10/23 08:43:53;;;;;;;7.85;4.07;;;16.50;87.30;;;;;;4994425;28;20041;-85
2022/10/23 08:46:25;;;;;;;13.88;4.75;;;16.50;87.10;;;;;;5004963;28;20159;-81
2022/10/23 08:48:59;;;;;;;8.43;4.25;;;16.50;87.30;;;;;;5001396;28;20238;-80
2022/10/23 08:51:34;;;;;;;8.18;4.28;;;16.50;87.20;;;;;;5000978;28;20057;-82
2022/10/23 08:54:18;;;;;;;8.57;4.68;;;16.50;87.20;;;;;;4994768;28;20034;-83
2022/10/23 08:56:50;;;;;;;9.20;4.18;;;16.50;87.20;;;;;;5001475;28;20124;-83
2022/10/23 08:59:28;;;;;;;10.80;5.03;;;16.50;87.20;;;;;;5006664;28;20034;-82
2022/10/23 09:02:19;;;;;;;8.85;4.85;;;16.60;87.10;;;;;;4992437;28;20390;-83
2022/10/23 09:04:47;;;;;;;10.77;5.22;;;16.60;87.00;;;;;;4999692;28;20037;-79
2022/10/23 09:07:38;;;;;;;10.32;4.60;;;16.60;87.00;;;;;;4995985;28;20494;-83
2022/10/23 09:10:29;;;;;;;7.35;4.18;;;16.60;86.70;;;;;;5000954;28;20358;-84
2022/10/23 09:13:34;;;;;;;10.60;4.85;;;16.70;86.40;;;;;;4992317;28;20046;-84
2022/10/23 09:16:24;;;;;;;10.02;4.65;;;16.80;86.20;;;;;;4988789;28;20639;-78
2022/10/23 09:18:56;;;;;;;8.15;4.10;;;16.80;86.10;;;;;;4995796;28;20056;-84
2022/10/23 09:21:28;;;;;;;11.73;4.75;;;16.90;86.00;;;;;;4991804;28;20041;-83
2022/10/23 09:23:55;;;;;;;8.40;4.32;;;17.00;85.60;;;;;;4994310;28;20086;-82
2022/10/23 09:26:21;;;;;;;9.20;4.60;;;17.10;85.60;;;;;;4993615;28;20056;-86
2022/10/23 09:28:56;;;;;;;11.48;4.55;;;17.00;85.20;;;;;;4995116;28;20026;-85
2022/10/23 09:31:21;;;;;;;9.00;4.68;;;17.10;85.00;;;;;;4979818;28;20065;-82
2022/10/23 09:34:00;;;;;;;10.60;5.05;;;17.10;84.80;;;;;;4978600;28;20116;-84
2022/10/23 09:36:28;;;;;;;13.75;4.40;;;17.20;84.60;;;;;;4992393;28;20165;-82
2022/10/23 09:38:57;;;;;;;11.35;4.90;;;17.20;84.70;;;;;;4993881;28;20042;-83
2022/10/23 09:41:37;;;;;;;16.77;5.68;;;17.20;84.70;;;;;;4993699;28;20069;-80
2022/10/23 09:44:25;;;;;;;9.45;4.00;;;17.20;84.50;;;;;;4977041;28;20141;-82
2022/10/23 09:46:59;;;;;;;9.88;4.90;;;17.30;84.50;;;;;;4988971;28;20034;-81
2022/10/23 09:49:31;;;;;;;8.25;4.30;;;17.30;84.30;;;;;;4974850;28;20045;-82
2022/10/23 09:52:09;;;;;;;9.20;4.20;;;17.40;84.30;;;;;;4993960;28;20036;-81
2022/10/23 09:54:53;;;;;;;9.82;4.85;;;17.50;84.20;;;;;;4973184;28;20065;-84
2022/10/23 09:57:23;;;;;;;9.70;4.72;;;17.60;83.90;;;;;;4973939;28;20030;-81
2022/10/23 10:00:02;;;;;;;9.40;4.47;;;17.60;83.50;;;;;;4994808;28;20046;-78
2022/10/23 10:02:30;;;;;;;9.15;4.72;;;17.60;83.30;;;;;;4992672;28;20427;-73
2022/10/23 10:04:57;;;;;;;10.07;4.68;;;17.60;83.00;;;;;;4989865;28;20061;-73
2022/10/23 10:07:28;;;;;;;11.25;4.25;;;17.70;82.90;;;;;;4989850;28;20034;-74
2022/10/23 10:09:56;;;;;;;11.63;4.53;;;17.80;82.90;;;;;;4988723;28;20103;-74
2022/10/23 10:12:48;;;;;;;10.32;4.88;;;17.90;82.70;;;;;;4987412;28;20050;-74
2022/10/23 10:15:27;;;;;;;8.88;4.85;;;18.00;82.00;;;;;;4987645;28;20033;-73
2022/10/23 10:18:11;;;;;;;9.68;4.72;;;18.10;82.00;;;;;;4987721;28;20117;-75
2022/10/23 10:21:25;;;;;;;11.65;4.53;;;18.10;81.60;;;;;;4992137;28;20402;-76
2022/10/23 10:24:12;;;;;;;10.80;4.32;;;18.20;81.10;;;;;;4969052;28;20043;-74
2022/10/23 10:26:42;;;;;;;9.63;4.60;;;18.20;81.00;;;;;;4991105;28;20389;-74
2022/10/23 10:29:58;;;;;;;11.00;4.70;;;18.20;80.70;;;;;;4989373;28;20062;-74
2022/10/23 10:33:06;;;;;;;10.30;5.13;;;18.20;80.60;;;;;;4988273;28;20038;-74
2022/10/23 10:35:51;;;;;;;9.60;4.72;;;18.30;81.00;;;;;;4973324;28;20073;-74
2022/10/23 10:38:25;;;;;;;12.45;5.22;;;18.40;81.00;;;;;;4988112;28;20504;-73
2022/10/23 10:41:22;;;;;;;8.25;4.40;;;18.50;80.80;;;;;;4973327;28;20507;-75
2022/10/23 10:44:26;;;;;;;9.93;4.70;;;18.60;80.40;;;;;;4970089;28;20506;-74
2022/10/23 10:46:58;;;;;;;8.43;4.43;;;18.60;80.30;;;;;;4968804;28;20046;-75
2022/10/23 10:49:43;;;;;;;12.45;5.00;;;18.60;79.80;;;;;;4988640;28;20034;-75
2022/10/23 10:52:15;;;;;;;;;;;18.60;79.70;;;;;;4990559;28;20505;-74
2022/10/23 10:55:10;;;;;;;9.75;4.88;;;18.70;79.30;;;;;;4986053;28;20540;-74
2022/10/23 10:57:41;;;;;;;9.15;4.25;;;18.80;79.80;;;;;;4984950;28;20034;-73
2022/10/23 11:00:29;;;;;;;10.63;4.70;;;18.90;79.00;;;;;;4988339;28;20092;-74
2022/10/23 11:03:11;;;;;;;13.70;4.65;;;19.00;78.50;;;;;;4985479;28;20026;-74
2022/10/23 11:05:42;;;;;;;10.38;4.68;;;19.00;78.50;;;;;;4974968;28;20042;-73
2022/10/23 11:08:17;;;;;;;9.52;4.28;;;19.10;78.60;;;;;;4986908;28;20124;-74
2022/10/23 11:10:49;;;;;;;12.73;4.35;;;19.10;78.20;;;;;;4983595;28;20042;-74
2022/10/23 11:13:48;;;;;;;9.10;4.47;;;19.20;77.80;;;;;;4969338;28;20340;-73
2022/10/23 11:16:19;;;;;;;9.90;3.97;;;19.30;77.90;;;;;;4941881;28;20043;-74
2022/10/23 11:19:00;;;;;;;8.43;4.10;;;19.50;77.50;;;;;;4987035;28;20034;-74
2022/10/23 11:21:49;;;;;;;10.48;4.53;;;19.60;77.00;;;;;;4985741;28;20057;-73
2022/10/23 11:24:43;;;;;;;12.48;4.35;;;19.70;76.70;;;;;;4975524;28;20216;-74
2022/10/23 11:27:14;;;;;;;13.68;4.90;;;19.80;77.00;;;;;;4983134;28;20061;-74
2022/10/23 11:30:21;;;;;;;10.25;3.75;;;19.80;76.20;;;;;;4974428;28;20520;-74
2022/10/23 11:33:00;;;;;;;8.43;3.80;;;20.00;76.00;;;;;;4985690;28;20295;-74
2022/10/23 11:35:46;;;;;;;8.75;4.30;;;20.00;75.60;;;;;;4994298;28;20121;-74
2022/10/23 11:38:12;;;;;;;8.70;4.18;;;20.00;75.60;;;;;;4994532;28;20049;-74
2022/10/23 11:40:50;;;;;;;7.93;4.22;;;20.10;75.70;;;;;;4993560;28;20045;-73
2022/10/23 11:43:32;;;;;;;8.65;3.53;;;20.10;75.60;;;;;;4989240;28;20022;-75
2022/10/23 11:45:58;;;;;;;8.90;3.70;;;20.10;75.30;;;;;;4989899;28;20022;-73
2022/10/23 11:48:41;;;;;;;8.35;3.80;;;20.30;75.10;;;;;;4973877;28;20046;-74
2022/10/23 11:51:26;;;;;;;10.10;4.10;;;20.20;74.20;;;;;;4990796;28;20041;-72
2022/10/23 11:53:51;;;;;;;9.52;3.90;;;20.10;74.70;;;;;;4996849;28;20050;-75
2022/10/23 11:56:20;;;;;;;12.48;4.30;;;20.30;74.90;;;;;;4993306;28;20628;-74
2022/10/23 11:58:52;;;;;;;8.30;4.35;;;20.20;74.00;;;;;;4984167;28;20042;-76
2022/10/23 12:01:27;;;;;;;9.50;3.80;;;20.40;74.40;;;;;;4986628;28;20052;-74
2022/10/23 12:04:01;;;;;;;9.73;3.70;;;20.50;74.10;;;;;;4985440;28;20030;-75
2022/10/23 12:06:38;;;;;;;9.13;3.97;;;20.40;74.00;;;;;;4992644;28;20026;-74
2022/10/23 12:09:26;;;;;;;9.75;3.83;;;20.40;74.20;;;;;;4986942;28;20042;-75
2022/10/23 12:12:16;;;;;;;10.40;3.85;;;20.30;74.00;;;;;;4974522;28;20141;-74
2022/10/23 12:14:48;;;;;;;8.73;3.90;;;20.50;74.50;;;;;;4988761;28;20053;-73
2022/10/23 12:17:22;;;;;;;9.52;3.78;;;20.60;74.00;;;;;;4980790;28;20818;-74
2022/10/23 12:19:54;;;;;;;9.13;3.63;;;20.60;72.80;;;;;;4987929;28;20042;-74
2022/10/23 12:22:23;;;;;;;10.50;4.47;;;20.70;72.90;;;;;;4970364;28;20456;-73
2022/10/23 12:25:37;;;;;;;7.82;3.67;;;20.90;72.80;;;;;;4978046;28;20030;-74
2022/10/23 12:28:25;;;;;;;8.85;3.67;;;20.80;71.50;;;;;;4954865;28;20152;-75
2022/10/23 12:31:16;;;;;;;8.55;3.60;;;20.90;72.10;;;;;;4980540;28;20460;-73
2022/10/23 12:33:42;;;;;;;6.60;3.50;;;21.10;72.40;;;;;;4966863;28;20034;-74
2022/10/23 12:36:24;;;;;;;8.02;3.75;;;21.20;71.60;;;;;;4981536;28;20044;-73
2022/10/23 12:38:49;;;;;;;7.25;3.58;;;21.40;71.40;;;;;;4984965;28;20064;-73
2022/10/23 12:41:37;;;;;;;9.25;3.60;;;21.30;70.60;;;;;;4983370;28;20073;-72
2022/10/23 12:44:10;;;;;;;8.63;4.05;;;21.20;71.30;;;;;;4986656;28;20630;-73
2022/10/23 12:46:42;;;;;;;8.45;3.58;;;21.20;71.40;;;;;;4993190;28;20045;-72
2022/10/23 12:49:19;;;;;;;9.35;3.47;;;21.30;70.90;;;;;;4965177;28;20034;-72
2022/10/23 12:51:53;;;;;;;8.57;3.22;;;21.20;71.30;;;;;;4982704;28;20119;-73
2022/10/23 12:54:20;;;;;;;7.85;3.88;;;21.20;71.50;;;;;;4981241;28;20490;-73
2022/10/23 12:56:46;;;;;;;9.45;3.45;;;21.10;71.30;;;;;;4980890;28;20112;-74
2022/10/23 12:59:16;;;;;;;6.60;3.53;;;21.00;71.90;;;;;;4974780;28;20037;-73
2022/10/23 13:01:42;;;;;;;7.00;3.47;;;21.10;71.70;;;;;;4981192;28;20056;-74
2022/10/23 13:04:20;;;;;;;11.10;3.85;;;21.10;71.70;;;;;;4960334;28;20510;-74
2022/10/23 13:06:47;;;;;;;9.27;3.40;;;21.10;71.60;;;;;;4970976;28;20149;-73
2022/10/23 13:09:26;;;;;;;7.25;3.50;;;21.10;71.70;;;;;;4976614;28;20531;-72